LA22 weather

PG&E Livermore Training Center Heliport
Livermore, California, United States

Public forecast

Using degrees Fahrenheit for public forecast. Weather courtesy of forecast.io.

METAR (pilot weather report)

Closest report is Livermore Municipal Airport, 5.2 nm (9.7 km) W. Retrieved 2019/06/17 17:53 UTC (24 minutes ago):

KLVK 171753Z 00000KT 10SM CLR 22/13 A2984 RMK AO2 SLP101 T02220133 10222 20128 58001

TAF (pilot weather forecast)

Closest forecast is Livermore Municipal Airport, 5.2 nm (9.7 km) W. Retrieved 2019/06/17 18:36 UTC (0 seconds ago):

TAF KLVK 171735Z 1718/1818 VRB03KT P6SM SKC FM172000 29010KT P6SM SKC FM180400 29005KT P6SM SKC FM180800 VRB03KT P6SM SKC FM181700 28007KT P6SM SKC